Home   Weather   Germany   Solingen   Past weeks
Flag for Germany

Past Weather in Solingen, North Rhine-Westphalia, Germany — Yesterday and Last 2 Weeks

Currently: 84 °F. Passing clouds. (Weather station: Duesseldorf, Germany). See more current weather

Past Weather in Solingen — Graph

°F

Solingen Temperature Yesterday

Maximum temperature yesterday: 84 °F (at 5:50 pm)
Minimum temperature yesterday: 61 °F (at 5:20 am)
Average temperature yesterday: 72 °F

High & Low Weather Summary for the Past Weeks

 TemperatureHumidityPressure
High91 °F (Aug 3, 3:20 pm)100% (Aug 5, 5:20 am)30.36 "Hg (Aug 5, 5:20 am)
Low48 °F (Aug 6, 5:50 am)28% (Aug 3, 5:50 pm)29.89 "Hg (Aug 4, 3:20 am)
Average69 °F60%30.10 "Hg
* Reported Jul 26 12:20 pm — Aug 10 12:20 pm, Solingen. Weather by CustomWeather, © 2022

Note: Actual official high and low records may vary slightly from our data, if they occured in-between our weather recording intervals... More about our weather records

Solingen Weather History for the Previous 24 Hours

Scroll right to see more
 ConditionsComfort  
Time TempWeatherWind HumidityBarometerVisibility
12:20 pm
Wed, Aug 10
82 °FPassing clouds.12 mph32%30.27 "HgN/A
10:50 am79 °FPassing clouds.5 mph39%30.30 "HgN/A
10:20 am77 °FPassing clouds.7 mph42%30.30 "HgN/A
9:50 am75 °FPassing clouds.6 mph44%30.30 "HgN/A
9:20 am73 °FPassing clouds.7 mph50%30.30 "HgN/A
8:50 am72 °FPassing clouds.5 mph53%30.30 "HgN/A
7:50 am64 °FPassing clouds.3 mph73%30.30 "HgN/A
7:20 am63 °FSunny.3 mph73%30.27 "Hg10 mi
6:50 am63 °FSunny.3 mph73%30.30 "Hg10 mi
6:20 am61 °FPassing clouds.3 mph77%30.27 "HgN/A
5:50 am63 °FClear.5 mph73%30.27 "Hg10 mi
5:20 am63 °FClear.5 mph73%30.27 "Hg10 mi
4:20 am64 °FClear.6 mph68%30.27 "Hg10 mi
3:50 am64 °FClear.6 mph68%30.27 "Hg10 mi
3:20 am66 °FClear.7 mph64%30.30 "Hg10 mi
2:50 am66 °FClear.8 mph64%30.30 "Hg10 mi
12:50 am68 °FClear.8 mph60%30.30 "Hg10 mi
12:20 am68 °FClear.7 mph60%30.30 "Hg10 mi
11:50 pm
Tue, Aug 9
70 °FClear.6 mph57%30.30 "Hg10 mi
11:20 pm72 °FClear.5 mph53%30.30 "Hg10 mi
10:50 pm72 °FClear.7 mph53%30.30 "Hg10 mi
10:20 pm73 °FClear.7 mph47%30.30 "Hg10 mi
9:50 pm73 °FClear.6 mph47%30.30 "Hg10 mi
9:20 pm75 °FClear.8 mph44%30.30 "Hg10 mi
8:50 pm77 °FSunny.10 mph42%30.27 "Hg10 mi
8:20 pm79 °FSunny.10 mph37%30.27 "Hg10 mi
7:50 pm81 °FPassing clouds.10 mph34%30.27 "HgN/A
7:20 pm81 °FSunny.9 mph34%30.27 "Hg10 mi
6:50 pm82 °FPassing clouds.12 mph32%30.27 "HgN/A
6:20 pm82 °FPassing clouds.13 mph32%30.27 "HgN/A
5:50 pm84 °FPassing clouds.10 mph31%30.27 "HgN/A
5:20 pm82 °FPassing clouds.9 mph32%30.27 "HgN/A
4:50 pm82 °FPassing clouds.10 mph32%30.27 "HgN/A
4:20 pm82 °FPassing clouds.10 mph35%30.27 "HgN/A
3:20 pm82 °FPassing clouds.9 mph35%30.30 "HgN/A
2:50 pm81 °FPassing clouds.13 mph37%30.30 "HgN/A
2:20 pm82 °FPassing clouds.13 mph35%30.30 "HgN/A
1:50 pm81 °FPassing clouds.10 mph37%30.30 "HgN/A
1:20 pm79 °FPassing clouds.13 mph39%30.33 "HgN/A
Weather by CustomWeather, © 2022

See weather overview